sensor_id;sensor_type;location;lat;lon;timestamp;temperature;humidity
42905;DHT22;28550;51.228;4.528;2023-06-14T00:01:50;18.90;99.90
42905;DHT22;28550;51.228;4.528;2023-06-14T00:04:15;18.90;99.90
42905;DHT22;28550;51.228;4.528;2023-06-14T00:06:46;19.00;99.90
42905;DHT22;28550;51.228;4.528;2023-06-14T00:09:13;18.90;99.90
42905;DHT22;28550;51.228;4.528;2023-06-14T00:11:43;18.90;99.90
42905;DHT22;28550;51.228;4.528;2023-06-14T00:14:08;18.80;99.90
42905;DHT22;28550;51.228;4.528;2023-06-14T00:16:35;18.70;99.90
42905;DHT22;28550;51.228;4.528;2023-06-14T00:19:02;18.70;99.90
42905;DHT22;28550;51.228;4.528;2023-06-14T00:21:40;18.80;99.90
42905;DHT22;28550;51.228;4.528;2023-06-14T00:24:16;18.70;99.90
42905;DHT22;28550;51.228;4.528;2023-06-14T00:26:42;18.80;99.90
42905;DHT22;28550;51.228;4.528;2023-06-14T00:29:08;18.70;99.90
42905;DHT22;28550;51.228;4.528;2023-06-14T00:31:34;18.50;99.90
42905;DHT22;28550;51.228;4.528;2023-06-14T00:34:02;18.60;99.90
42905;DHT22;28550;51.228;4.528;2023-06-14T00:36:47;18.50;99.90
42905;DHT22;28550;51.228;4.528;2023-06-14T00:39:17;18.40;99.90
42905;DHT22;28550;51.228;4.528;2023-06-14T00:42:10;18.50;99.90
42905;DHT22;28550;51.228;4.528;2023-06-14T00:44:39;18.40;99.90
42905;DHT22;28550;51.228;4.528;2023-06-14T00:47:05;18.40;99.90
42905;DHT22;28550;51.228;4.528;2023-06-14T00:49:32;18.40;99.90
42905;DHT22;28550;51.228;4.528;2023-06-14T00:55:33;18.30;99.90
42905;DHT22;28550;51.228;4.528;2023-06-14T00:58:01;18.20;99.90
42905;DHT22;28550;51.228;4.528;2023-06-14T01:00:46;18.20;99.90
42905;DHT22;28550;51.228;4.528;2023-06-14T01:03:18;18.20;99.90
42905;DHT22;28550;51.228;4.528;2023-06-14T01:06:00;18.20;99.90
42905;DHT22;28550;51.228;4.528;2023-06-14T01:14:47;18.10;99.90
42905;DHT22;28550;51.228;4.528;2023-06-14T01:17:36;18.00;99.90
42905;DHT22;28550;51.228;4.528;2023-06-14T01:20:15;18.00;99.90
42905;DHT22;28550;51.228;4.528;2023-06-14T01:22:57;18.10;99.90
42905;DHT22;28550;51.228;4.528;2023-06-14T01:25:32;18.00;99.90
42905;DHT22;28550;51.228;4.528;2023-06-14T01:28:10;18.00;99.90
42905;DHT22;28550;51.228;4.528;2023-06-14T01:30:44;18.00;99.90
42905;DHT22;28550;51.228;4.528;2023-06-14T01:33:18;18.00;99.90
42905;DHT22;28550;51.228;4.528;2023-06-14T01:35:52;18.10;99.90
42905;DHT22;28550;51.228;4.528;2023-06-14T01:38:36;18.10;99.90
42905;DHT22;28550;51.228;4.528;2023-06-14T01:41:23;18.10;99.90
42905;DHT22;28550;51.228;4.528;2023-06-14T01:43:50;18.10;99.90
42905;DHT22;28550;51.228;4.528;2023-06-14T01:46:20;18.00;99.90
42905;DHT22;28550;51.228;4.528;2023-06-14T01:48:48;18.10;99.90
42905;DHT22;28550;51.228;4.528;2023-06-14T01:51:14;18.10;99.90
42905;DHT22;28550;51.228;4.528;2023-06-14T01:53:48;18.00;99.90
42905;DHT22;28550;51.228;4.528;2023-06-14T01:56:49;18.00;99.90
42905;DHT22;28550;51.228;4.528;2023-06-14T01:59:20;18.10;99.90
42905;DHT22;28550;51.228;4.528;2023-06-14T02:01:46;18.00;99.90
42905;DHT22;28550;51.228;4.528;2023-06-14T02:04:12;17.90;99.90
42905;DHT22;28550;51.228;4.528;2023-06-14T02:06:38;18.00;99.90
42905;DHT22;28550;51.228;4.528;2023-06-14T02:09:04;18.00;99.90
42905;DHT22;28550;51.228;4.528;2023-06-14T02:11:37;18.00;99.90
42905;DHT22;28550;51.228;4.528;2023-06-14T02:14:04;18.00;99.90
42905;DHT22;28550;51.228;4.528;2023-06-14T02:16:31;17.90;99.90
42905;DHT22;28550;51.228;4.528;2023-06-14T02:19:16;17.90;99.90
42905;DHT22;28550;51.228;4.528;2023-06-14T02:21:43;17.80;99.90
42905;DHT22;28550;51.228;4.528;2023-06-14T02:24:10;17.80;99.90
42905;DHT22;28550;51.228;4.528;2023-06-14T02:26:53;17.70;99.90
42905;DHT22;28550;51.228;4.528;2023-06-14T02:29:21;17.70;99.90
42905;DHT22;28550;51.228;4.528;2023-06-14T02:31:48;17.60;99.90
42905;DHT22;28550;51.228;4.528;2023-06-14T02:34:32;17.60;99.90
42905;DHT22;28550;51.228;4.528;2023-06-14T02:37:02;17.50;99.90
42905;DHT22;28550;51.228;4.528;2023-06-14T02:39:34;17.50;99.90
42905;DHT22;28550;51.228;4.528;2023-06-14T02:42:00;17.40;99.90
42905;DHT22;28550;51.228;4.528;2023-06-14T02:44:31;17.40;99.90
42905;DHT22;28550;51.228;4.528;2023-06-14T02:47:03;17.50;99.90
42905;DHT22;28550;51.228;4.528;2023-06-14T02:49:30;17.40;99.90
42905;DHT22;28550;51.228;4.528;2023-06-14T02:51:56;17.30;99.90
42905;DHT22;28550;51.228;4.528;2023-06-14T02:54:24;17.30;99.90
42905;DHT22;28550;51.228;4.528;2023-06-14T02:57:10;17.20;99.90
42905;DHT22;28550;51.228;4.528;2023-06-14T02:59:37;17.20;99.90
42905;DHT22;28550;51.228;4.528;2023-06-14T03:02:05;17.10;99.90
42905;DHT22;28550;51.228;4.528;2023-06-14T03:04:34;17.10;99.90
42905;DHT22;28550;51.228;4.528;2023-06-14T03:07:05;17.00;99.90
42905;DHT22;28550;51.228;4.528;2023-06-14T03:09:43;17.00;99.90
42905;DHT22;28550;51.228;4.528;2023-06-14T03:12:23;17.10;99.90
42905;DHT22;28550;51.228;4.528;2023-06-14T03:14:50;17.00;99.90
42905;DHT22;28550;51.228;4.528;2023-06-14T03:17:38;17.10;99.90
42905;DHT22;28550;51.228;4.528;2023-06-14T03:20:06;17.20;99.90
42905;DHT22;28550;51.228;4.528;2023-06-14T03:22:36;17.10;99.90
42905;DHT22;28550;51.228;4.528;2023-06-14T03:25:07;17.10;99.90
42905;DHT22;28550;51.228;4.528;2023-06-14T03:27:35;17.10;99.90
42905;DHT22;28550;51.228;4.528;2023-06-14T03:30:01;17.10;99.90
42905;DHT22;28550;51.228;4.528;2023-06-14T03:32:28;17.00;99.90
42905;DHT22;28550;51.228;4.528;2023-06-14T03:34:59;17.00;99.90
42905;DHT22;28550;51.228;4.528;2023-06-14T03:37:34;17.10;99.90
42905;DHT22;28550;51.228;4.528;2023-06-14T03:40:01;17.10;99.90
42905;DHT22;28550;51.228;4.528;2023-06-14T03:42:47;17.00;99.90
42905;DHT22;28550;51.228;4.528;2023-06-14T03:45:18;17.00;99.90
42905;DHT22;28550;51.228;4.528;2023-06-14T03:47:44;16.90;99.90
42905;DHT22;28550;51.228;4.528;2023-06-14T03:50:11;17.00;99.90
42905;DHT22;28550;51.228;4.528;2023-06-14T03:52:42;16.90;99.90
42905;DHT22;28550;51.228;4.528;2023-06-14T03:55:13;17.00;99.90
42905;DHT22;28550;51.228;4.528;2023-06-14T03:57:42;17.00;99.90
42905;DHT22;28550;51.228;4.528;2023-06-14T04:00:16;17.00;99.90
42905;DHT22;28550;51.228;4.528;2023-06-14T04:02:42;17.00;99.90
42905;DHT22;28550;51.228;4.528;2023-06-14T04:05:10;17.00;99.90
42905;DHT22;28550;51.228;4.528;2023-06-14T04:07:36;17.00;99.90
42905;DHT22;28550;51.228;4.528;2023-06-14T04:10:11;17.00;99.90
42905;DHT22;28550;51.228;4.528;2023-06-14T04:12:43;17.10;99.90
42905;DHT22;28550;51.228;4.528;2023-06-14T04:15:09;17.10;99.90
42905;DHT22;28550;51.228;4.528;2023-06-14T04:17:36;17.10;99.90
42905;DHT22;28550;51.228;4.528;2023-06-14T04:20:03;17.20;99.90
42905;DHT22;28550;51.228;4.528;2023-06-14T04:22:34;17.10;99.90
42905;DHT22;28550;51.228;4.528;2023-06-14T04:25:01;17.20;99.90
42905;DHT22;28550;51.228;4.528;2023-06-14T04:27:27;17.30;99.90
42905;DHT22;28550;51.228;4.528;2023-06-14T04:29:54;17.30;99.90
42905;DHT22;28550;51.228;4.528;2023-06-14T04:32:28;17.30;99.90
42905;DHT22;28550;51.228;4.528;2023-06-14T04:34:55;17.30;99.90
42905;DHT22;28550;51.228;4.528;2023-06-14T04:37:24;17.40;99.90
42905;DHT22;28550;51.228;4.528;2023-06-14T04:39:59;17.40;99.90
42905;DHT22;28550;51.228;4.528;2023-06-14T04:42:33;17.40;99.90
42905;DHT22;28550;51.228;4.528;2023-06-14T04:45:03;17.50;99.90
42905;DHT22;28550;51.228;4.528;2023-06-14T04:47:30;17.40;99.90
42905;DHT22;28550;51.228;4.528;2023-06-14T04:50:00;17.40;99.90
42905;DHT22;28550;51.228;4.528;2023-06-14T04:52:26;17.40;99.90
42905;DHT22;28550;51.228;4.528;2023-06-14T04:54:59;17.50;99.90
42905;DHT22;28550;51.228;4.528;2023-06-14T04:57:27;17.60;99.90
42905;DHT22;28550;51.228;4.528;2023-06-14T05:00:01;17.70;99.90
42905;DHT22;28550;51.228;4.528;2023-06-14T05:02:31;17.80;99.90
42905;DHT22;28550;51.228;4.528;2023-06-14T05:04:58;17.80;99.90
42905;DHT22;28550;51.228;4.528;2023-06-14T05:07:27;17.90;99.90
42905;DHT22;28550;51.228;4.528;2023-06-14T05:09:56;18.00;99.90
42905;DHT22;28550;51.228;4.528;2023-06-14T05:12:22;18.00;99.90
42905;DHT22;28550;51.228;4.528;2023-06-14T05:14:48;18.10;99.90
42905;DHT22;28550;51.228;4.528;2023-06-14T05:17:17;18.20;99.90
42905;DHT22;28550;51.228;4.528;2023-06-14T05:19:43;18.30;99.90
42905;DHT22;28550;51.228;4.528;2023-06-14T05:22:09;18.40;99.90
42905;DHT22;28550;51.228;4.528;2023-06-14T05:24:35;18.40;99.90
42905;DHT22;28550;51.228;4.528;2023-06-14T05:27:16;18.50;99.90
42905;DHT22;28550;51.228;4.528;2023-06-14T05:29:44;18.60;99.90
42905;DHT22;28550;51.228;4.528;2023-06-14T05:32:11;18.70;99.90
42905;DHT22;28550;51.228;4.528;2023-06-14T05:34:44;18.80;99.90
42905;DHT22;28550;51.228;4.528;2023-06-14T05:37:10;18.90;99.90
42905;DHT22;28550;51.228;4.528;2023-06-14T05:39:37;19.20;99.90
42905;DHT22;28550;51.228;4.528;2023-06-14T05:42:05;19.30;99.90
42905;DHT22;28550;51.228;4.528;2023-06-14T05:44:31;19.40;99.90
42905;DHT22;28550;51.228;4.528;2023-06-14T05:47:11;19.50;99.90
42905;DHT22;28550;51.228;4.528;2023-06-14T05:49:55;19.70;99.90
42905;DHT22;28550;51.228;4.528;2023-06-14T05:52:24;19.80;99.90
42905;DHT22;28550;51.228;4.528;2023-06-14T05:54:52;19.90;99.90
42905;DHT22;28550;51.228;4.528;2023-06-14T05:57:18;20.10;99.90
42905;DHT22;28550;51.228;4.528;2023-06-14T05:59:43;20.20;99.90
42905;DHT22;28550;51.228;4.528;2023-06-14T06:02:09;20.30;99.90
42905;DHT22;28550;51.228;4.528;2023-06-14T06:04:36;20.30;99.90
42905;DHT22;28550;51.228;4.528;2023-06-14T06:07:04;20.50;99.90
42905;DHT22;28550;51.228;4.528;2023-06-14T06:09:30;20.50;99.90
42905;DHT22;28550;51.228;4.528;2023-06-14T06:12:06;20.70;99.90
42905;DHT22;28550;51.228;4.528;2023-06-14T06:14:53;20.90;99.90
42905;DHT22;28550;51.228;4.528;2023-06-14T06:17:22;21.20;99.90
42905;DHT22;28550;51.228;4.528;2023-06-14T06:20:25;21.30;99.90
42905;DHT22;28550;51.228;4.528;2023-06-14T06:22:54;21.60;99.90
42905;DHT22;28550;51.228;4.528;2023-06-14T06:25:22;21.80;99.90
42905;DHT22;28550;51.228;4.528;2023-06-14T06:27:52;21.80;99.90
42905;DHT22;28550;51.228;4.528;2023-06-14T06:30:19;21.90;99.90
42905;DHT22;28550;51.228;4.528;2023-06-14T06:32:49;22.10;99.90
42905;DHT22;28550;51.228;4.528;2023-06-14T06:35:27;22.10;99.90
42905;DHT22;28550;51.228;4.528;2023-06-14T06:37:56;22.20;99.90
42905;DHT22;28550;51.228;4.528;2023-06-14T06:40:23;22.50;99.90
42905;DHT22;28550;51.228;4.528;2023-06-14T06:42:56;22.80;99.90
42905;DHT22;28550;51.228;4.528;2023-06-14T06:45:39;22.90;99.90
42905;DHT22;28550;51.228;4.528;2023-06-14T06:48:17;23.10;99.90
42905;DHT22;28550;51.228;4.528;2023-06-14T06:50:52;23.40;99.90
42905;DHT22;28550;51.228;4.528;2023-06-14T06:53:18;24.00;99.90
42905;DHT22;28550;51.228;4.528;2023-06-14T06:55:50;24.20;99.90
42905;DHT22;28550;51.228;4.528;2023-06-14T06:58:15;24.60;99.90
42905;DHT22;28550;51.228;4.528;2023-06-14T07:01:38;24.20;99.90
42905;DHT22;28550;51.228;4.528;2023-06-14T07:04:06;24.70;99.90
42905;DHT22;28550;51.228;4.528;2023-06-14T07:06:31;25.20;99.90
42905;DHT22;28550;51.228;4.528;2023-06-14T07:08:57;25.40;99.90
42905;DHT22;28550;51.228;4.528;2023-06-14T07:11:27;25.50;99.90
42905;DHT22;28550;51.228;4.528;2023-06-14T07:13:53;26.20;99.90
42905;DHT22;28550;51.228;4.528;2023-06-14T07:16:24;26.70;99.90
42905;DHT22;28550;51.228;4.528;2023-06-14T07:18:57;26.90;94.10
42905;DHT22;28550;51.228;4.528;2023-06-14T07:21:25;26.40;95.20
42905;DHT22;28550;51.228;4.528;2023-06-14T07:23:54;26.10;96.50
42905;DHT22;28550;51.228;4.528;2023-06-14T07:26:23;26.30;89.50
42905;DHT22;28550;51.228;4.528;2023-06-14T07:28:51;26.80;89.70
42905;DHT22;28550;51.228;4.528;2023-06-14T07:31:18;26.70;79.10
42905;DHT22;28550;51.228;4.528;2023-06-14T07:33:45;27.10;87.50
42905;DHT22;28550;51.228;4.528;2023-06-14T07:36:18;27.20;61.10
42905;DHT22;28550;51.228;4.528;2023-06-14T07:38:55;27.50;66.60
42905;DHT22;28550;51.228;4.528;2023-06-14T07:41:24;27.90;66.10
42905;DHT22;28550;51.228;4.528;2023-06-14T07:44:00;28.00;64.80
42905;DHT22;28550;51.228;4.528;2023-06-14T07:46:26;28.00;76.30
42905;DHT22;28550;51.228;4.528;2023-06-14T07:48:55;27.90;56.80
42905;DHT22;28550;51.228;4.528;2023-06-14T07:51:28;28.40;37.80
42905;DHT22;28550;51.228;4.528;2023-06-14T07:54:00;29.10;47.90
42905;DHT22;28550;51.228;4.528;2023-06-14T07:56:32;29.10;42.00
42905;DHT22;28550;51.228;4.528;2023-06-14T07:59:04;29.40;56.40
42905;DHT22;28550;51.228;4.528;2023-06-14T08:01:35;29.90;39.40
42905;DHT22;28550;51.228;4.528;2023-06-14T08:06:56;30.20;44.20
42905;DHT22;28550;51.228;4.528;2023-06-14T08:09:40;30.70;24.50
42905;DHT22;28550;51.228;4.528;2023-06-14T08:12:13;31.00;27.30
42905;DHT22;28550;51.228;4.528;2023-06-14T08:14:53;31.20;34.70
42905;DHT22;28550;51.228;4.528;2023-06-14T08:17:19;30.40;34.70
42905;DHT22;28550;51.228;4.528;2023-06-14T08:19:45;29.80;24.50
42905;DHT22;28550;51.228;4.528;2023-06-14T08:22:21;30.00;27.50
42905;DHT22;28550;51.228;4.528;2023-06-14T08:24:52;30.30;35.50
42905;DHT22;28550;51.228;4.528;2023-06-14T08:27:21;30.00;35.20
42905;DHT22;28550;51.228;4.528;2023-06-14T08:29:50;30.50;21.70
42905;DHT22;28550;51.228;4.528;2023-06-14T08:32:17;29.70;24.40
42905;DHT22;28550;51.228;4.528;2023-06-14T08:35:08;29.80;25.50
42905;DHT22;28550;51.228;4.528;2023-06-14T08:37:49;30.20;24.70
42905;DHT22;28550;51.228;4.528;2023-06-14T08:40:23;31.30;19.40
42905;DHT22;28550;51.228;4.528;2023-06-14T08:42:53;31.20;29.40
42905;DHT22;28550;51.228;4.528;2023-06-14T08:45:23;31.40;27.40
42905;DHT22;28550;51.228;4.528;2023-06-14T08:48:14;32.00;19.10
42905;DHT22;28550;51.228;4.528;2023-06-14T08:51:00;32.00;9.30
42905;DHT22;28550;51.228;4.528;2023-06-14T08:53:38;32.20;22.00
42905;DHT22;28550;51.228;4.528;2023-06-14T08:56:21;32.80;23.40
42905;DHT22;28550;51.228;4.528;2023-06-14T08:58:51;32.80;20.40
42905;DHT22;28550;51.228;4.528;2023-06-14T09:01:18;33.20;24.90
42905;DHT22;28550;51.228;4.528;2023-06-14T09:03:48;33.50;26.00
42905;DHT22;28550;51.228;4.528;2023-06-14T09:06:15;33.90;10.90
42905;DHT22;28550;51.228;4.528;2023-06-14T09:08:48;33.60;11.70
42905;DHT22;28550;51.228;4.528;2023-06-14T09:11:24;33.20;6.10
42905;DHT22;28550;51.228;4.528;2023-06-14T09:13:55;33.10;18.30
42905;DHT22;28550;51.228;4.528;2023-06-14T09:16:32;33.80;15.90
42905;DHT22;28550;51.228;4.528;2023-06-14T09:19:24;34.70;6.10
42905;DHT22;28550;51.228;4.528;2023-06-14T09:21:55;35.30;15.50
42905;DHT22;28550;51.228;4.528;2023-06-14T09:24:21;35.80;10.90
42905;DHT22;28550;51.228;4.528;2023-06-14T09:26:59;36.50;1.00
42905;DHT22;28550;51.228;4.528;2023-06-14T09:29:33;36.00;4.20
42905;DHT22;28550;51.228;4.528;2023-06-14T09:32:21;35.10;9.80
42905;DHT22;28550;51.228;4.528;2023-06-14T09:34:49;35.80;8.30
42905;DHT22;28550;51.228;4.528;2023-06-14T09:37:35;34.60;1.70
42905;DHT22;28550;51.228;4.528;2023-06-14T09:40:28;34.10;6.50
42905;DHT22;28550;51.228;4.528;2023-06-14T09:42:54;34.30;1.00
42905;DHT22;28550;51.228;4.528;2023-06-14T09:45:38;33.80;1.00
42905;DHT22;28550;51.228;4.528;2023-06-14T09:48:15;33.80;1.00
42905;DHT22;28550;51.228;4.528;2023-06-14T09:50:45;34.80;1.00
42905;DHT22;28550;51.228;4.528;2023-06-14T09:53:23;35.00;1.00
42905;DHT22;28550;51.228;4.528;2023-06-14T09:58:57;35.10;1.00
42905;DHT22;28550;51.228;4.528;2023-06-14T10:01:42;35.80;1.00
42905;DHT22;28550;51.228;4.528;2023-06-14T10:04:10;36.00;1.00
42905;DHT22;28550;51.228;4.528;2023-06-14T10:06:54;36.40;1.00
42905;DHT22;28550;51.228;4.528;2023-06-14T10:09:38;35.50;1.00
42905;DHT22;28550;51.228;4.528;2023-06-14T10:12:46;35.20;1.00
42905;DHT22;28550;51.228;4.528;2023-06-14T10:24:55;34.90;1.00
42905;DHT22;28550;51.228;4.528;2023-06-14T10:27:53;35.40;1.00
42905;DHT22;28550;51.228;4.528;2023-06-14T10:30:31;36.40;1.00
42905;DHT22;28550;51.228;4.528;2023-06-14T10:33:07;37.00;1.00
42905;DHT22;28550;51.228;4.528;2023-06-14T10:35:42;37.60;1.00
42905;DHT22;28550;51.228;4.528;2023-06-14T10:38:37;37.30;1.00
42905;DHT22;28550;51.228;4.528;2023-06-14T10:41:14;37.70;1.00
42905;DHT22;28550;51.228;4.528;2023-06-14T10:46:30;36.80;1.00
42905;DHT22;28550;51.228;4.528;2023-06-14T10:52:20;37.30;1.00
42905;DHT22;28550;51.228;4.528;2023-06-14T10:55:09;36.90;1.00
42905;DHT22;28550;51.228;4.528;2023-06-14T10:57:56;38.00;1.00
42905;DHT22;28550;51.228;4.528;2023-06-14T11:00:28;38.30;1.00
42905;DHT22;28550;51.228;4.528;2023-06-14T11:06:14;38.00;1.00
42905;DHT22;28550;51.228;4.528;2023-06-14T11:11:22;37.90;1.00
42905;DHT22;28550;51.228;4.528;2023-06-14T11:13:51;37.70;1.00
42905;DHT22;28550;51.228;4.528;2023-06-14T11:16:18;38.00;1.00
42905;DHT22;28550;51.228;4.528;2023-06-14T11:18:49;38.90;1.00
42905;DHT22;28550;51.228;4.528;2023-06-14T11:21:20;39.60;1.00
42905;DHT22;28550;51.228;4.528;2023-06-14T11:23:53;39.70;1.00
42905;DHT22;28550;51.228;4.528;2023-06-14T11:26:31;39.20;1.00
42905;DHT22;28550;51.228;4.528;2023-06-14T11:29:01;38.60;1.00
42905;DHT22;28550;51.228;4.528;2023-06-14T11:31:28;38.10;1.00
42905;DHT22;28550;51.228;4.528;2023-06-14T11:33:57;37.10;1.00
42905;DHT22;28550;51.228;4.528;2023-06-14T11:36:26;38.80;1.00
42905;DHT22;28550;51.228;4.528;2023-06-14T11:39:05;39.90;1.00
42905;DHT22;28550;51.228;4.528;2023-06-14T11:41:42;39.30;1.00
42905;DHT22;28550;51.228;4.528;2023-06-14T11:44:19;40.00;1.00
42905;DHT22;28550;51.228;4.528;2023-06-14T11:46:48;39.80;1.00
42905;DHT22;28550;51.228;4.528;2023-06-14T11:49:14;39.30;1.00
42905;DHT22;28550;51.228;4.528;2023-06-14T11:51:43;38.30;1.00
42905;DHT22;28550;51.228;4.528;2023-06-14T11:54:10;39.10;1.00
42905;DHT22;28550;51.228;4.528;2023-06-14T11:56:36;37.80;1.00
42905;DHT22;28550;51.228;4.528;2023-06-14T11:59:17;37.80;1.00
42905;DHT22;28550;51.228;4.528;2023-06-14T12:01:45;37.90;1.00
42905;DHT22;28550;51.228;4.528;2023-06-14T12:04:29;39.50;1.00
42905;DHT22;28550;51.228;4.528;2023-06-14T12:06:57;40.20;1.00
42905;DHT22;28550;51.228;4.528;2023-06-14T12:09:23;39.60;1.00
42905;DHT22;28550;51.228;4.528;2023-06-14T12:12:07;39.50;1.00
42905;DHT22;28550;51.228;4.528;2023-06-14T12:14:36;40.40;1.00
42905;DHT22;28550;51.228;4.528;2023-06-14T12:17:17;40.40;1.00
42905;DHT22;28550;51.228;4.528;2023-06-14T12:19:51;41.10;1.00
42905;DHT22;28550;51.228;4.528;2023-06-14T12:22:18;39.90;1.00
42905;DHT22;28550;51.228;4.528;2023-06-14T12:24:44;39.60;1.00
42905;DHT22;28550;51.228;4.528;2023-06-14T12:27:15;38.50;1.00
42905;DHT22;28550;51.228;4.528;2023-06-14T12:29:44;38.40;1.00
42905;DHT22;28550;51.228;4.528;2023-06-14T12:32:11;38.80;1.00
42905;DHT22;28550;51.228;4.528;2023-06-14T12:34:37;39.20;1.00
42905;DHT22;28550;51.228;4.528;2023-06-14T12:37:09;38.80;1.00
42905;DHT22;28550;51.228;4.528;2023-06-14T12:39:46;39.40;1.00
42905;DHT22;28550;51.228;4.528;2023-06-14T12:42:11;39.90;1.00
42905;DHT22;28550;51.228;4.528;2023-06-14T12:45:01;39.60;1.00
42905;DHT22;28550;51.228;4.528;2023-06-14T12:47:37;39.30;1.00
42905;DHT22;28550;51.228;4.528;2023-06-14T12:50:24;39.70;1.00
42905;DHT22;28550;51.228;4.528;2023-06-14T12:53:00;40.50;1.00
42905;DHT22;28550;51.228;4.528;2023-06-14T12:55:39;39.10;1.00
42905;DHT22;28550;51.228;4.528;2023-06-14T12:58:09;38.40;1.00
42905;DHT22;28550;51.228;4.528;2023-06-14T13:00:39;38.00;1.00
42905;DHT22;28550;51.228;4.528;2023-06-14T13:03:16;38.40;1.00
42905;DHT22;28550;51.228;4.528;2023-06-14T13:05:46;38.80;1.00
42905;DHT22;28550;51.228;4.528;2023-06-14T13:08:19;39.10;1.00
42905;DHT22;28550;51.228;4.528;2023-06-14T13:10:46;40.00;1.00
42905;DHT22;28550;51.228;4.528;2023-06-14T13:13:13;39.00;1.00
42905;DHT22;28550;51.228;4.528;2023-06-14T13:15:54;38.90;1.00
42905;DHT22;28550;51.228;4.528;2023-06-14T13:18:31;39.10;1.00
42905;DHT22;28550;51.228;4.528;2023-06-14T13:20:58;40.40;1.00
42905;DHT22;28550;51.228;4.528;2023-06-14T13:23:28;38.60;1.00
42905;DHT22;28550;51.228;4.528;2023-06-14T13:25:55;37.80;1.00
42905;DHT22;28550;51.228;4.528;2023-06-14T13:28:21;38.10;1.00
42905;DHT22;28550;51.228;4.528;2023-06-14T13:30:48;38.70;1.00
42905;DHT22;28550;51.228;4.528;2023-06-14T13:33:16;38.40;1.00
42905;DHT22;28550;51.228;4.528;2023-06-14T13:35:48;38.10;1.00
42905;DHT22;28550;51.228;4.528;2023-06-14T13:38:15;38.90;1.00
42905;DHT22;28550;51.228;4.528;2023-06-14T13:40:43;38.40;1.00
42905;DHT22;28550;51.228;4.528;2023-06-14T13:43:15;38.30;1.00
42905;DHT22;28550;51.228;4.528;2023-06-14T13:45:46;38.20;1.00
42905;DHT22;28550;51.228;4.528;2023-06-14T13:48:14;37.50;1.00
42905;DHT22;28550;51.228;4.528;2023-06-14T13:50:46;37.20;1.00
42905;DHT22;28550;51.228;4.528;2023-06-14T13:53:17;36.90;1.00
42905;DHT22;28550;51.228;4.528;2023-06-14T13:55:44;36.60;1.00
42905;DHT22;28550;51.228;4.528;2023-06-14T13:58:16;37.40;1.00
42905;DHT22;28550;51.228;4.528;2023-06-14T14:00:45;38.10;1.00
42905;DHT22;28550;51.228;4.528;2023-06-14T14:03:26;38.80;1.00
42905;DHT22;28550;51.228;4.528;2023-06-14T14:05:54;38.30;1.00
42905;DHT22;28550;51.228;4.528;2023-06-14T14:08:20;38.50;1.00
42905;DHT22;28550;51.228;4.528;2023-06-14T14:11:01;39.10;1.00
42905;DHT22;28550;51.228;4.528;2023-06-14T14:13:47;39.30;1.00
42905;DHT22;28550;51.228;4.528;2023-06-14T14:17:14;39.30;1.00
42905;DHT22;28550;51.228;4.528;2023-06-14T14:20:14;37.50;1.00
42905;DHT22;28550;51.228;4.528;2023-06-14T14:22:53;36.90;1.00
42905;DHT22;28550;51.228;4.528;2023-06-14T14:25:51;37.30;1.00
42905;DHT22;28550;51.228;4.528;2023-06-14T14:28:24;37.20;1.00
42905;DHT22;28550;51.228;4.528;2023-06-14T14:30:54;37.20;1.00
42905;DHT22;28550;51.228;4.528;2023-06-14T14:33:44;38.10;1.00
42905;DHT22;28550;51.228;4.528;2023-06-14T14:36:15;38.40;1.00
42905;DHT22;28550;51.228;4.528;2023-06-14T14:38:45;38.30;1.00
42905;DHT22;28550;51.228;4.528;2023-06-14T14:41:21;38.40;1.00
42905;DHT22;28550;51.228;4.528;2023-06-14T14:43:54;38.20;1.00
42905;DHT22;28550;51.228;4.528;2023-06-14T14:47:00;38.80;1.00
42905;DHT22;28550;51.228;4.528;2023-06-14T14:50:06;39.40;1.00
42905;DHT22;28550;51.228;4.528;2023-06-14T14:52:53;39.00;1.00
42905;DHT22;28550;51.228;4.528;2023-06-14T14:55:26;38.20;1.00
42905;DHT22;28550;51.228;4.528;2023-06-14T15:01:02;37.30;1.00
42905;DHT22;28550;51.228;4.528;2023-06-14T15:03:30;37.10;1.00
42905;DHT22;28550;51.228;4.528;2023-06-14T15:06:28;37.70;1.00
42905;DHT22;28550;51.228;4.528;2023-06-14T15:09:02;37.40;1.00
42905;DHT22;28550;51.228;4.528;2023-06-14T15:11:28;36.50;1.00
42905;DHT22;28550;51.228;4.528;2023-06-14T15:20:51;36.70;1.00
42905;DHT22;28550;51.228;4.528;2023-06-14T15:23:18;36.10;1.00
42905;DHT22;28550;51.228;4.528;2023-06-14T15:25:52;35.40;1.00
42905;DHT22;28550;51.228;4.528;2023-06-14T15:28:19;34.80;1.00
42905;DHT22;28550;51.228;4.528;2023-06-14T15:31:00;34.50;1.00
42905;DHT22;28550;51.228;4.528;2023-06-14T15:33:35;34.80;1.00
42905;DHT22;28550;51.228;4.528;2023-06-14T15:39:10;36.10;1.00
42905;DHT22;28550;51.228;4.528;2023-06-14T15:42:00;36.50;1.00
42905;DHT22;28550;51.228;4.528;2023-06-14T15:44:42;35.40;1.00
42905;DHT22;28550;51.228;4.528;2023-06-14T15:47:20;35.30;1.00
42905;DHT22;28550;51.228;4.528;2023-06-14T15:49:49;35.70;1.00
42905;DHT22;28550;51.228;4.528;2023-06-14T15:52:15;35.70;1.00
42905;DHT22;28550;51.228;4.528;2023-06-14T15:54:40;34.90;1.00
42905;DHT22;28550;51.228;4.528;2023-06-14T15:57:07;34.90;1.00
42905;DHT22;28550;51.228;4.528;2023-06-14T15:59:35;35.00;1.00
42905;DHT22;28550;51.228;4.528;2023-06-14T16:02:13;35.20;1.00
42905;DHT22;28550;51.228;4.528;2023-06-14T16:04:42;35.50;1.00
42905;DHT22;28550;51.228;4.528;2023-06-14T16:07:16;35.30;1.00
42905;DHT22;28550;51.228;4.528;2023-06-14T16:09:43;35.10;1.00
42905;DHT22;28550;51.228;4.528;2023-06-14T16:12:09;35.00;1.00
42905;DHT22;28550;51.228;4.528;2023-06-14T16:14:35;35.30;1.00
42905;DHT22;28550;51.228;4.528;2023-06-14T16:17:17;35.30;1.00
42905;DHT22;28550;51.228;4.528;2023-06-14T16:19:43;34.60;1.00
42905;DHT22;28550;51.228;4.528;2023-06-14T16:22:13;34.60;1.00
42905;DHT22;28550;51.228;4.528;2023-06-14T16:24:43;34.30;1.00
42905;DHT22;28550;51.228;4.528;2023-06-14T16:27:11;34.50;1.00
42905;DHT22;28550;51.228;4.528;2023-06-14T16:29:40;34.80;1.00
42905;DHT22;28550;51.228;4.528;2023-06-14T16:32:06;34.40;1.00
42905;DHT22;28550;51.228;4.528;2023-06-14T16:34:32;34.00;1.00
42905;DHT22;28550;51.228;4.528;2023-06-14T16:36:58;34.00;1.00
42905;DHT22;28550;51.228;4.528;2023-06-14T16:39:24;33.70;1.00
42905;DHT22;28550;51.228;4.528;2023-06-14T16:41:50;33.20;1.00
42905;DHT22;28550;51.228;4.528;2023-06-14T16:44:16;32.90;1.00
42905;DHT22;28550;51.228;4.528;2023-06-14T16:46:41;32.70;1.00
42905;DHT22;28550;51.228;4.528;2023-06-14T16:49:07;32.10;1.00
42905;DHT22;28550;51.228;4.528;2023-06-14T16:51:33;32.30;1.00
42905;DHT22;28550;51.228;4.528;2023-06-14T16:54:01;32.30;1.00
42905;DHT22;28550;51.228;4.528;2023-06-14T16:56:28;32.30;1.00
42905;DHT22;28550;51.228;4.528;2023-06-14T16:58:57;32.10;1.00
42905;DHT22;28550;51.228;4.528;2023-06-14T17:01:24;32.00;1.00
42905;DHT22;28550;51.228;4.528;2023-06-14T17:03:50;32.00;1.00